createdAt,value
2023-04-12T00:00:56.966Z,7.35
2023-04-12T00:03:25.367Z,5.88
2023-04-12T00:05:54.961Z,5.72
2023-04-12T00:08:26.336Z,6.18
2023-04-12T00:10:53.968Z,7.60
2023-04-12T00:13:46.822Z,6.70
2023-04-12T00:16:16.007Z,5.72
2023-04-12T00:18:45.862Z,6.82
2023-04-12T00:21:13.704Z,5.80
2023-04-12T00:23:41.214Z,6.72
2023-04-12T00:26:08.704Z,5.82
2023-04-12T00:28:36.295Z,6.20
2023-04-12T00:31:03.870Z,7.22
2023-04-12T00:33:32.724Z,7.43
2023-04-12T00:36:00.323Z,7.03
2023-04-12T00:38:27.839Z,6.22
2023-04-12T00:40:55.827Z,6.28
2023-04-12T00:43:27.960Z,6.78
2023-04-12T00:45:57.846Z,6.80
2023-04-12T00:48:26.399Z,6.15
2023-04-12T00:50:57.792Z,6.90
2023-04-12T00:53:25.593Z,8.38
2023-04-12T00:55:53.485Z,7.53
2023-04-12T00:58:25.318Z,6.88
2023-04-12T01:00:54.837Z,7.55
2023-04-12T01:03:23.933Z,7.35
2023-04-12T01:05:57.973Z,7.40
2023-04-12T01:08:31.606Z,8.40
2023-04-12T01:11:07.049Z,8.93
2023-04-12T01:13:37.060Z,7.88
2023-04-12T01:16:09.064Z,7.97
2023-04-12T01:18:40.805Z,7.43
2023-04-12T01:21:10.044Z,9.07
2023-04-12T01:23:49.289Z,7.85
2023-04-12T01:26:33.246Z,8.55
2023-04-12T01:29:03.265Z,8.13
2023-04-12T01:31:32.181Z,8.20
2023-04-12T01:34:00.940Z,9.10
2023-04-12T01:36:29.053Z,9.10
2023-04-12T01:38:57.074Z,9.52
2023-04-12T01:41:24.755Z,9.52
2023-04-12T01:43:52.209Z,7.78
2023-04-12T01:46:23.223Z,8.88
2023-04-12T01:48:51.760Z,8.45
2023-04-12T01:51:21.305Z,9.15
2023-04-12T01:53:50.749Z,8.10
2023-04-12T01:56:20.341Z,8.95
2023-04-12T01:58:49.686Z,9.07
2023-04-12T02:01:19.170Z,8.32
2023-04-12T02:03:50.866Z,8.40
2023-04-12T02:06:20.012Z,9.13
2023-04-12T02:08:48.065Z,8.90
2023-04-12T02:14:07.915Z,9.82
2023-04-12T02:16:35.940Z,8.98
2023-04-12T02:19:08.398Z,8.88
2023-04-12T02:21:41.048Z,9.40
2023-04-12T02:24:08.736Z,8.85
2023-04-12T02:26:37.236Z,9.10
2023-04-12T02:29:04.901Z,9.10
2023-04-12T02:31:32.919Z,8.35
2023-04-12T02:34:00.726Z,9.32
2023-04-12T02:36:29.599Z,9.60
2023-04-12T02:38:57.179Z,8.98
2023-04-12T02:41:25.359Z,8.65
2023-04-12T02:43:52.862Z,10.13
2023-04-12T02:46:21.805Z,9.43
2023-04-12T02:48:50.592Z,8.93
2023-04-12T02:51:18.118Z,8.98
2023-04-12T02:53:46.938Z,9.02
2023-04-12T02:56:15.749Z,10.00
2023-04-12T02:58:43.262Z,8.65
2023-04-12T03:01:13.344Z,8.90
2023-04-12T03:03:41.414Z,8.90
2023-04-12T03:06:09.895Z,8.27
2023-04-12T03:08:38.137Z,8.63
2023-04-12T03:11:07.368Z,8.77
2023-04-12T03:13:34.885Z,10.02
2023-04-12T03:16:20.396Z,8.90
2023-04-12T03:18:48.032Z,8.75
2023-04-12T03:21:16.293Z,10.30
2023-04-12T03:23:43.841Z,9.05
2023-04-12T03:26:12.686Z,8.05
2023-04-12T03:28:40.202Z,9.05
2023-04-12T03:31:08.264Z,9.05
2023-04-12T03:33:35.841Z,10.10
2023-04-12T03:36:03.474Z,8.88
2023-04-12T03:38:31.108Z,8.98
2023-04-12T03:40:59.464Z,9.55
2023-04-12T03:43:28.707Z,8.35
2023-04-12T03:45:56.437Z,9.68
2023-04-12T03:48:24.246Z,9.63
2023-04-12T03:50:54.637Z,9.25
2023-04-12T03:53:22.956Z,8.93
2023-04-12T03:55:50.640Z,8.82
2023-04-12T03:58:18.948Z,10.57
2023-04-12T04:00:48.958Z,10.10
2023-04-12T04:03:16.681Z,9.48
2023-04-12T04:05:44.274Z,12.07
2023-04-12T04:08:11.960Z,9.98
2023-04-12T04:10:42.874Z,8.32
2023-04-12T04:13:10.931Z,10.07
2023-04-12T04:15:40.773Z,9.65
2023-04-12T04:18:10.035Z,9.48
2023-04-12T04:20:37.788Z,7.65
2023-04-12T04:23:05.337Z,9.00
2023-04-12T04:25:33.954Z,9.65
2023-04-12T04:28:02.855Z,9.10
2023-04-12T04:30:30.588Z,9.05
2023-04-12T04:32:58.419Z,9.75
2023-04-12T04:35:27.495Z,8.98
2023-04-12T04:37:55.707Z,8.82
2023-04-12T04:40:24.919Z,8.85
2023-04-12T04:42:54.878Z,8.13
2023-04-12T04:45:26.674Z,8.63
2023-04-12T04:47:54.645Z,9.02
2023-04-12T04:50:22.859Z,9.02
2023-04-12T04:52:52.257Z,8.20
2023-04-12T04:55:21.023Z,8.00
2023-04-12T04:57:48.598Z,8.93
2023-04-12T05:00:16.587Z,8.23
2023-04-12T05:02:45.650Z,8.05
2023-04-12T05:05:14.055Z,8.57
2023-04-12T05:07:43.458Z,8.30
2023-04-12T05:10:12.770Z,8.13
2023-04-12T05:12:40.316Z,7.07
2023-04-12T05:15:11.715Z,8.65
2023-04-12T05:17:39.885Z,7.63
2023-04-12T05:20:08.216Z,7.95
2023-04-12T05:22:36.167Z,7.82
2023-04-12T05:25:04.365Z,7.07
2023-04-12T05:27:33.362Z,7.82
2023-04-12T05:30:01.420Z,7.32
2023-04-12T05:32:29.156Z,7.88
2023-04-12T05:34:56.986Z,7.25
2023-04-12T05:37:24.533Z,8.15
2023-04-12T05:39:52.088Z,7.03
2023-04-12T05:42:19.586Z,8.07
2023-04-12T05:44:49.872Z,7.07
2023-04-12T05:47:17.575Z,6.97
2023-04-12T05:49:45.018Z,7.35
2023-04-12T05:52:12.676Z,6.63
2023-04-12T05:54:40.305Z,6.65
2023-04-12T05:57:07.914Z,6.57
2023-04-12T05:59:35.485Z,6.10
2023-04-12T06:02:04.568Z,6.50
2023-04-12T06:04:48.837Z,5.68
2023-04-12T06:07:19.308Z,7.30
2023-04-12T06:09:47.393Z,6.50
2023-04-12T06:12:15.031Z,5.72
2023-04-12T06:20:28.175Z,5.95
2023-04-12T06:22:55.822Z,5.97
2023-04-12T06:25:24.087Z,6.75
2023-04-12T06:27:52.261Z,6.80
2023-04-12T06:30:20.785Z,6.70
2023-04-12T06:32:49.870Z,5.75
2023-04-12T06:35:18.052Z,6.07
2023-04-12T06:37:45.639Z,5.95
2023-04-12T06:40:13.584Z,6.30
2023-04-12T06:42:46.641Z,5.40
2023-04-12T06:45:14.491Z,5.82
2023-04-12T06:47:42.037Z,5.35
2023-04-12T06:50:12.364Z,6.03
2023-04-12T06:52:39.970Z,5.97
2023-04-12T06:55:08.436Z,5.80
2023-04-12T06:57:39.518Z,5.63
2023-04-12T07:00:07.992Z,5.47
2023-04-12T07:02:35.804Z,5.32
2023-04-12T07:05:17.784Z,4.55
2023-04-12T07:07:47.791Z,4.95
2023-04-12T07:10:15.833Z,5.05
2023-04-12T07:12:43.475Z,5.38
2023-04-12T07:15:12.833Z,4.47
2023-04-12T07:17:40.460Z,5.03
2023-04-12T07:23:01.820Z,4.78
2023-04-12T07:25:29.920Z,4.72
2023-04-12T07:27:57.610Z,4.60
2023-04-12T07:30:25.692Z,4.53
2023-04-12T07:32:58.463Z,5.10
2023-04-12T07:35:33.192Z,4.05
2023-04-12T07:38:04.481Z,4.55
2023-04-12T07:40:32.014Z,4.07
2023-04-12T07:42:59.685Z,4.22
2023-04-12T07:45:27.294Z,4.72
2023-04-12T07:47:54.883Z,4.05
2023-04-12T07:50:22.517Z,4.25
2023-04-12T07:52:50.097Z,4.18
2023-04-12T07:55:19.297Z,4.35
2023-04-12T07:57:48.627Z,3.67
2023-04-12T08:00:16.886Z,3.58
2023-04-12T08:02:46.770Z,4.47
2023-04-12T08:05:18.589Z,4.32
2023-04-12T08:07:46.258Z,3.47
2023-04-12T08:10:13.897Z,4.05
2023-04-12T08:12:43.346Z,3.90
2023-04-12T08:15:11.157Z,3.38
2023-04-12T08:17:38.763Z,3.25
2023-04-12T08:20:07.130Z,4.13
2023-04-12T08:22:34.721Z,3.65
2023-04-12T08:25:02.363Z,4.13
2023-04-12T08:27:30.667Z,3.85
2023-04-12T08:29:59.910Z,3.50
2023-04-12T08:32:27.679Z,4.35
2023-04-12T08:34:55.551Z,3.78
2023-04-12T08:37:23.264Z,3.38
2023-04-12T08:39:50.939Z,3.90
2023-04-12T08:42:23.133Z,3.40
2023-04-12T08:44:54.824Z,3.78
2023-04-12T08:47:23.953Z,3.30
2023-04-12T08:49:51.765Z,3.58
2023-04-12T08:52:19.392Z,3.95
2023-04-12T08:54:47.751Z,4.40
2023-04-12T08:57:16.789Z,4.13
2023-04-12T08:59:44.997Z,3.58
2023-04-12T09:02:15.154Z,3.78
2023-04-12T09:04:50.772Z,4.03
2023-04-12T09:07:18.469Z,3.67
2023-04-12T09:09:46.631Z,3.70
2023-04-12T09:12:15.296Z,3.80
2023-04-12T09:14:44.909Z,4.68
2023-04-12T09:17:25.249Z,3.92
2023-04-12T09:19:56.096Z,3.70
2023-04-12T09:22:34.115Z,3.72
2023-04-12T09:25:05.800Z,3.80
2023-04-12T09:27:47.071Z,3.90
2023-04-12T09:30:18.917Z,3.97
2023-04-12T09:32:49.289Z,3.10
2023-04-12T09:35:18.936Z,3.78
2023-04-12T09:37:46.682Z,3.88
2023-04-12T09:40:15.702Z,3.63
2023-04-12T09:42:51.879Z,3.38
2023-04-12T09:45:23.975Z,3.33
2023-04-12T09:50:46.683Z,3.20
2023-04-12T09:53:17.081Z,3.50
2023-04-12T09:55:45.260Z,3.03
2023-04-12T09:58:13.818Z,3.20
2023-04-12T10:00:43.624Z,3.17
2023-04-12T10:03:11.481Z,3.25
2023-04-12T10:05:41.308Z,2.92
2023-04-12T10:08:12.455Z,3.33
2023-04-12T10:10:40.064Z,3.30
2023-04-12T10:13:11.042Z,3.38
2023-04-12T10:15:39.073Z,3.13
2023-04-12T10:18:08.164Z,3.58
2023-04-12T10:20:36.745Z,3.50
2023-04-12T10:23:07.075Z,3.13
2023-04-12T10:25:36.303Z,4.07
2023-04-12T10:28:15.007Z,3.05
2023-04-12T10:30:42.976Z,3.00
2023-04-12T10:33:14.820Z,3.53
2023-04-12T10:35:53.715Z,3.33
2023-04-12T10:38:21.996Z,3.30
2023-04-12T10:41:12.416Z,3.38
2023-04-12T10:43:40.438Z,3.17
2023-04-12T10:46:08.192Z,3.75
2023-04-12T10:48:37.982Z,3.47
2023-04-12T10:51:17.730Z,3.45
2023-04-12T10:53:47.194Z,3.20
2023-04-12T10:56:33.654Z,3.15
2023-04-12T10:59:04.497Z,3.80
2023-04-12T11:01:38.415Z,3.13
2023-04-12T11:06:49.580Z,3.45
2023-04-12T11:09:35.289Z,3.72
2023-04-12T11:12:13.489Z,3.55
2023-04-12T11:17:41.431Z,3.72
2023-04-12T11:20:12.222Z,3.65
2023-04-12T11:22:41.272Z,3.72
2023-04-12T11:25:09.271Z,3.60
2023-04-12T11:27:38.093Z,3.55
2023-04-12T11:30:10.747Z,3.60
2023-04-12T11:32:41.516Z,3.58
2023-04-12T11:35:09.754Z,3.78
2023-04-12T11:40:29.602Z,4.30
2023-04-12T11:42:57.896Z,4.60
2023-04-12T11:45:27.504Z,3.60
2023-04-12T11:50:57.105Z,5.35
2023-04-12T11:53:31.723Z,3.88
2023-04-12T11:56:00.291Z,4.43
2023-04-12T11:58:30.334Z,3.78
2023-04-12T12:06:58.408Z,3.80
2023-04-12T12:09:26.880Z,3.72
2023-04-12T12:11:55.605Z,3.80
2023-04-12T12:14:48.502Z,4.60
2023-04-12T12:17:21.615Z,4.57
2023-04-12T12:22:51.098Z,3.97
2023-04-12T12:25:19.184Z,5.18
2023-04-12T12:27:48.627Z,4.95
2023-04-12T12:30:18.428Z,4.43
2023-04-12T12:32:47.737Z,4.22
2023-04-12T12:35:15.657Z,4.25
2023-04-12T12:37:50.036Z,3.80
2023-04-12T12:42:46.931Z,4.28
2023-04-12T12:45:14.988Z,3.65
2023-04-12T12:47:52.183Z,3.88
2023-04-12T12:50:22.052Z,3.40
2023-04-12T12:52:52.489Z,4.05
2023-04-12T13:01:04.404Z,3.75
2023-04-12T13:03:33.911Z,3.92
2023-04-12T13:06:01.780Z,4.72
2023-04-12T13:11:28.044Z,4.05
2023-04-12T13:13:56.371Z,4.25
2023-04-12T13:16:26.749Z,4.22
2023-04-12T13:18:57.333Z,4.93
2023-04-12T13:21:25.436Z,3.40
2023-04-12T13:23:53.247Z,4.05
2023-04-12T13:26:21.561Z,3.65
2023-04-12T13:28:49.516Z,3.80
2023-04-12T13:31:17.502Z,4.10
2023-04-12T13:33:45.618Z,3.78
2023-04-12T13:36:14.936Z,4.05
2023-04-12T13:38:42.683Z,3.75
2023-04-12T13:41:10.542Z,3.97
2023-04-12T13:43:38.199Z,4.85
2023-04-12T13:46:07.252Z,3.95
2023-04-12T13:48:35.045Z,4.20
2023-04-12T13:51:03.833Z,4.22
2023-04-12T13:53:32.852Z,4.50
2023-04-12T13:56:00.856Z,4.18
2023-04-12T13:58:28.796Z,4.07
2023-04-12T14:04:42.250Z,3.33
2023-04-12T14:09:48.913Z,3.72
2023-04-12T14:12:17.060Z,4.80
2023-04-12T14:14:45.020Z,3.78
2023-04-12T14:23:02.151Z,4.28
2023-04-12T14:25:31.329Z,4.28
2023-04-12T14:28:00.276Z,4.20
2023-04-12T14:30:28.272Z,4.60
2023-04-12T14:32:57.167Z,4.25
2023-04-12T14:35:24.912Z,3.80
2023-04-12T14:37:52.718Z,4.18
2023-04-12T14:40:20.709Z,4.03
2023-04-12T14:42:49.814Z,3.92
2023-04-12T14:45:21.233Z,4.40
2023-04-12T14:47:49.015Z,4.15
2023-04-12T14:50:17.057Z,3.92
2023-04-12T14:52:44.905Z,4.43
2023-04-12T14:55:16.802Z,4.50
2023-04-12T15:00:38.610Z,3.80
2023-04-12T15:03:07.222Z,3.67
2023-04-12T15:05:35.196Z,3.47
2023-04-12T15:08:06.226Z,3.70
2023-04-12T15:10:34.310Z,4.65
2023-04-12T15:13:02.033Z,4.15
2023-04-12T15:15:29.931Z,4.20
2023-04-12T15:18:00.490Z,3.97
2023-04-12T15:20:28.280Z,4.05
2023-04-12T15:22:56.050Z,4.25
2023-04-12T15:25:24.322Z,3.72
2023-04-12T15:27:52.201Z,4.03
2023-04-12T15:30:20.497Z,5.35
2023-04-12T15:32:49.011Z,4.15
2023-04-12T15:35:26.361Z,3.80
2023-04-12T15:37:55.588Z,5.00
2023-04-12T15:40:24.523Z,4.32
2023-04-12T15:42:52.301Z,4.47
2023-04-12T15:45:20.462Z,4.18
2023-04-12T15:47:48.109Z,4.40
2023-04-12T15:50:15.977Z,4.53
2023-04-12T15:52:46.332Z,4.47
2023-04-12T15:55:16.954Z,4.10
2023-04-12T15:57:44.625Z,4.80
2023-04-12T16:00:21.151Z,5.57
2023-04-12T16:02:53.795Z,6.18
2023-04-12T16:05:22.388Z,7.18
2023-04-12T16:07:54.320Z,7.18
2023-04-12T16:10:22.529Z,8.18
2023-04-12T16:12:50.927Z,7.00
2023-04-12T16:15:19.471Z,7.43
2023-04-12T16:17:56.300Z,8.35
2023-04-12T16:20:24.489Z,7.55
2023-04-12T16:22:55.204Z,8.40
2023-04-12T16:25:24.444Z,7.47
2023-04-12T16:27:52.451Z,7.20
2023-04-12T16:30:20.725Z,7.68
2023-04-12T16:32:48.617Z,7.63
2023-04-12T16:35:16.603Z,6.22
2023-04-12T16:37:44.895Z,6.13
2023-04-12T16:40:14.433Z,5.90
2023-04-12T16:42:44.169Z,6.28
2023-04-12T16:45:14.265Z,4.75
2023-04-12T16:47:42.249Z,5.93
2023-04-12T16:50:10.316Z,5.05
2023-04-12T16:52:38.253Z,5.22
2023-04-12T16:55:06.411Z,5.22
2023-04-12T16:57:35.449Z,4.20
2023-04-12T17:00:04.442Z,5.38
2023-04-12T17:08:29.026Z,5.45
2023-04-12T17:11:51.176Z,5.03
2023-04-12T17:15:02.298Z,4.93
2023-04-12T17:17:38.532Z,5.55
2023-04-12T17:20:11.557Z,6.68
2023-04-12T17:22:39.604Z,8.15
2023-04-12T17:25:08.692Z,6.47
2023-04-12T17:27:38.152Z,6.80
2023-04-12T17:30:16.639Z,7.43
2023-04-12T17:33:06.770Z,7.32
2023-04-12T17:35:51.427Z,8.63
2023-04-12T17:41:27.049Z,7.70
2023-04-12T17:47:29.664Z,9.75
2023-04-12T17:50:29.684Z,9.30
2023-04-12T17:53:00.225Z,7.65
2023-04-12T17:55:28.121Z,6.65
2023-04-12T17:57:56.150Z,5.40
2023-04-12T18:00:24.233Z,4.45
2023-04-12T18:02:54.733Z,5.88
2023-04-12T18:05:24.400Z,4.18
2023-04-12T18:07:52.186Z,3.92
2023-04-12T18:16:14.294Z,2.33
2023-04-12T18:18:42.114Z,2.47
2023-04-12T18:21:10.126Z,3.20
2023-04-12T18:23:41.556Z,2.72
2023-04-12T18:26:11.289Z,2.85
2023-04-12T18:28:40.851Z,2.35
2023-04-12T18:31:14.741Z,2.58
2023-04-12T18:33:42.803Z,2.58
2023-04-12T18:36:23.746Z,2.03
2023-04-12T18:38:56.019Z,2.55
2023-04-12T18:41:33.657Z,2.50
2023-04-12T18:44:01.448Z,2.97
2023-04-12T18:46:52.046Z,2.80
2023-04-12T18:49:24.189Z,3.00
2023-04-12T18:51:59.150Z,3.65
2023-04-12T18:54:27.779Z,3.33
2023-04-12T18:57:01.855Z,3.45
2023-04-12T18:59:34.368Z,3.90
2023-04-12T19:02:03.518Z,3.70
2023-04-12T19:04:42.268Z,4.18
2023-04-12T19:07:12.309Z,3.95
2023-04-12T19:09:43.494Z,4.03
2023-04-12T19:12:14.871Z,4.93
2023-04-12T19:14:51.257Z,4.60
2023-04-12T19:17:27.985Z,4.10
2023-04-12T19:19:56.158Z,4.70
2023-04-12T19:22:28.765Z,4.93
2023-04-12T19:24:57.908Z,5.60
2023-04-12T19:27:27.283Z,5.60
2023-04-12T19:29:59.318Z,5.03
2023-04-12T19:32:27.309Z,5.70
2023-04-12T19:34:55.166Z,5.93
2023-04-12T19:37:25.717Z,4.97
2023-04-12T19:39:54.843Z,5.50
2023-04-12T19:42:25.596Z,5.82
2023-04-12T19:45:07.611Z,6.10
2023-04-12T19:47:35.453Z,6.55
2023-04-12T19:50:04.547Z,5.32
2023-04-12T19:52:34.603Z,5.65
2023-04-12T19:55:02.236Z,5.85
2023-04-12T19:57:29.929Z,5.97
2023-04-12T19:59:58.981Z,5.55
2023-04-12T20:02:28.907Z,6.25
2023-04-12T20:04:56.681Z,6.32
2023-04-12T20:07:24.623Z,7.45
2023-04-12T20:09:54.902Z,7.10
2023-04-12T20:12:24.717Z,6.10
2023-04-12T20:14:54.503Z,5.63
2023-04-12T20:17:23.605Z,6.38
2023-04-12T20:19:53.075Z,6.85
2023-04-12T20:22:22.432Z,5.55
2023-04-12T20:24:50.472Z,6.15
2023-04-12T20:27:18.394Z,5.68
2023-04-12T20:32:39.996Z,5.78
2023-04-12T20:35:08.540Z,5.43
2023-04-12T20:37:37.618Z,5.20
2023-04-12T20:40:07.328Z,5.95
2023-04-12T20:42:34.828Z,5.70
2023-04-12T20:45:02.351Z,5.25
2023-04-12T20:47:29.882Z,5.93
2023-04-12T20:49:58.756Z,4.70
2023-04-12T20:52:26.756Z,5.43
2023-04-12T20:54:54.818Z,6.10
2023-04-12T20:57:22.416Z,4.78
2023-04-12T20:59:51.631Z,5.80
2023-04-12T21:02:20.220Z,4.90
2023-04-12T21:04:47.980Z,4.95
2023-04-12T21:07:18.152Z,4.57
2023-04-12T21:09:45.804Z,5.45
2023-04-12T21:12:13.542Z,5.00
2023-04-12T21:14:41.039Z,5.00
2023-04-12T21:17:08.726Z,4.60
2023-04-12T21:19:38.981Z,4.90
2023-04-12T21:22:07.065Z,5.00
2023-04-12T21:27:30.125Z,5.15
2023-04-12T21:29:58.238Z,5.50
2023-04-12T21:32:25.812Z,6.50
2023-04-12T21:34:53.673Z,5.07
2023-04-12T21:37:22.108Z,5.00
2023-04-12T21:39:51.137Z,4.90
2023-04-12T21:42:18.681Z,4.80
2023-04-12T21:44:46.213Z,5.18
2023-04-12T21:47:14.100Z,5.18
2023-04-12T21:49:41.694Z,5.25
2023-04-12T21:52:09.377Z,4.68
2023-04-12T21:54:37.043Z,4.80
2023-04-12T21:57:06.332Z,4.32
2023-04-12T21:59:33.869Z,4.75
2023-04-12T22:02:01.703Z,7.63
2023-04-12T22:04:29.445Z,4.88
2023-04-12T22:06:58.153Z,6.32
2023-04-12T22:09:27.094Z,5.10
2023-04-12T22:11:55.792Z,4.70
2023-04-12T22:14:24.882Z,4.28
2023-04-12T22:16:53.173Z,4.70
2023-04-12T22:19:20.789Z,4.68
2023-04-12T22:21:49.132Z,4.88
2023-04-12T22:24:16.685Z,4.90
2023-04-12T22:26:44.269Z,4.70
2023-04-12T22:29:11.736Z,4.18
2023-04-12T22:31:40.576Z,4.57
2023-04-12T22:34:08.482Z,4.68
2023-04-12T22:36:37.461Z,4.72
2023-04-12T22:39:05.390Z,5.65
2023-04-12T22:47:19.592Z,4.72
2023-04-12T22:49:50.591Z,5.20
2023-04-12T22:52:18.600Z,5.30
2023-04-12T22:54:48.071Z,4.82
2023-04-12T22:57:15.784Z,5.00
2023-04-12T22:59:43.265Z,5.03
2023-04-12T23:02:10.926Z,4.90
2023-04-12T23:04:40.429Z,5.40
2023-04-12T23:07:07.962Z,5.32
2023-04-12T23:09:36.126Z,5.10
2023-04-12T23:12:04.259Z,5.32
2023-04-12T23:14:31.780Z,4.85
2023-04-12T23:16:59.355Z,5.53
2023-04-12T23:19:27.295Z,5.90
2023-04-12T23:21:56.150Z,4.65
2023-04-12T23:24:24.304Z,4.72
2023-04-12T23:26:51.853Z,5.18
2023-04-12T23:29:19.688Z,3.95
2023-04-12T23:31:47.575Z,4.85
2023-04-12T23:34:16.558Z,4.68
2023-04-12T23:36:45.050Z,4.93
2023-04-12T23:39:13.962Z,4.47
2023-04-12T23:41:41.944Z,4.90
2023-04-12T23:44:09.514Z,4.65
2023-04-12T23:46:37.099Z,5.03
2023-04-12T23:49:04.587Z,4.28
2023-04-12T23:51:32.525Z,4.40
2023-04-12T23:54:00.535Z,4.32
2023-04-12T23:56:29.547Z,5.75
2023-04-12T23:58:57.056Z,4.65
